»·PEaware :: N774DF KSBA-KBUR

N774DF :: KSBA-KBUR

FLIGHT INFORMATION

Flight Status: Arrived
Operator: Privately registered:
United States
More flights under this callsign
Pilot: Greg S. (26686)
Aircraft: BEECH AIRCRAFT BONANZA
(BE36)
More flights by this aircraft type
Origin: KSBA Santa Barbara Mun
United States
Destination: KBUR Bob Hope-Burbank
United States
More flights between these airports :: More routes between these airports
Route:
File this flight plan on PilotEdge
Remarks:
Altitude:
(Current/Filed)
5,500ft
Speed:
(Current/Filed)
170kts
Departed: 12-Jan-21 04:09 PM
Arrived: 12-Jan-21 04:46 PM
Distance/Time
Traveled:
75nm/0:37
Distance/Time
To Go:
Arrived

Flight Plot

Page will automatically refresh every two minutes.


Map Options




Map Legend


Flown Route
Filed Route
Departure Airport
Arrival Airport
Navaid (VOR, NDB)
Fix

Horizontal Profiles

Position Reports

Time Latitude Longitude Heading Altitude Ground
Speed
12-Jan-21 15:52 34.425813 -119.836719 189 17ft 0kts
12-Jan-21 15:53 34.425813 -119.836719 189 17ft 0kts
12-Jan-21 15:54 34.425813 -119.836719 189 17ft 0kts
12-Jan-21 15:55 34.425813 -119.836719 189 17ft 0kts
12-Jan-21 15:56 34.425813 -119.836719 189 17ft 0kts
12-Jan-21 15:57 34.425813 -119.836719 189 17ft 0kts
12-Jan-21 15:58 34.425813 -119.836719 189 17ft 0kts
12-Jan-21 15:59 34.425813 -119.836719 189 17ft 0kts
12-Jan-21 16:00 34.425813 -119.836719 189 17ft 0kts
12-Jan-21 16:01 34.425813 -119.836719 189 17ft 0kts
12-Jan-21 16:02 34.425813 -119.836719 189 17ft 0kts
12-Jan-21 16:03 34.425813 -119.836719 189 17ft 0kts
12-Jan-21 16:04 34.425813 -119.836719 189 17ft 0kts
12-Jan-21 16:05 34.425968 -119.836933 335 17ft 10kts
12-Jan-21 16:06 34.426612 -119.835436 37 17ft 12kts
12-Jan-21 16:07 34.427205 -119.835187 8 17ft 14kts
12-Jan-21 16:08 34.427954 -119.856427 270 468ft 108kts
12-Jan-21 16:09 34.427694 -119.896735 265 1855ft 112kts
12-Jan-21 16:10 34.408582 -119.918255 157 3197ft 111kts
12-Jan-21 16:11 34.401742 -119.883326 73 4132ft 138kts
12-Jan-21 16:12 34.409313 -119.844616 92 5415ft 118kts
12-Jan-21 16:13 34.408776 -119.806061 87 6214ft 137kts
12-Jan-21 16:14 34.414180 -119.755899 81 6594ft 156kts
12-Jan-21 16:15 34.417803 -119.707133 89 7456ft 143kts
12-Jan-21 16:16 34.412759 -119.653268 99 7483ft 169kts
12-Jan-21 16:17 34.407576 -119.592270 90 7184ft 177kts
12-Jan-21 16:18 34.408598 -119.533913 91 7475ft 166kts
12-Jan-21 16:19 34.399958 -119.477745 106 7531ft 174kts
12-Jan-21 16:20 34.393822 -119.418379 96 7310ft 187kts
12-Jan-21 16:21 34.389711 -119.360769 93 7697ft 169kts
12-Jan-21 16:22 34.388800 -119.304931 91 7521ft 181kts
12-Jan-21 16:23 34.383688 -119.248526 97 7486ft 179kts
12-Jan-21 16:24 34.378405 -119.191935 97 7478ft 179kts
12-Jan-21 16:25 34.374377 -119.135148 95 7572ft 174kts
12-Jan-21 16:26 34.368132 -119.077188 96 7214ft 190kts
12-Jan-21 16:27 34.362318 -119.020625 93 7395ft 176kts
12-Jan-21 16:28 34.359264 -118.965915 94 7484ft 175kts
12-Jan-21 16:29 34.354242 -118.910335 98 7535ft 176kts
12-Jan-21 16:30 34.347588 -118.855458 102 7565ft 177kts
12-Jan-21 16:31 34.332650 -118.802928 112 7564ft 176kts
12-Jan-21 16:32 34.314829 -118.752420 111 7561ft 179kts
12-Jan-21 16:33 34.299566 -118.700872 105 7523ft 178kts
12-Jan-21 16:34 34.286612 -118.652545 109 7512ft 178kts
12-Jan-21 16:35 34.272515 -118.608415 113 7466ft 177kts
12-Jan-21 16:36 34.258872 -118.569315 108 6903ft 182kts
12-Jan-21 16:37 34.248338 -118.529775 108 5914ft 191kts
12-Jan-21 16:38 34.237175 -118.492235 111 4499ft 196kts
12-Jan-21 16:39 34.222976 -118.457602 119 3282ft 191kts
12-Jan-21 16:40 34.207496 -118.424580 112 2435ft 169kts
12-Jan-21 16:41 34.208047 -118.393053 46 1812ft 140kts
12-Jan-21 16:42 34.224787 -118.377923 36 1543ft 103kts
12-Jan-21 16:43 34.221837 -118.363106 165 1222ft 94kts
12-Jan-21 16:44 34.208960 -118.359467 165 781ft 67kts
12-Jan-21 16:45 34.203061 -118.357634 83 779ft 12kts
12-Jan-21 16:46 34.203167 -118.356984 79 779ft 0kts
12-Jan-21 16:47 34.201779 -118.356183 167 779ft 20kts
12-Jan-21 16:48 34.198699 -118.355331 168 779ft 3kts

Navigation Log

Ident Type
Flight plan parsing failed, navigation log unavailable